Terminal Aerodrome Forecast
Issued by NWS Pittsburgh, PA

Current Version | Previous Version | Graphics & Text | Print | Product List | Glossary On
Versions: 1 2 3 4 5 6 7 8 9 10 11 12 13 14 15 16 17 18 19 20 21 22 23 24 25 26 27 28 29 30 31 32 33 34 35 36 37
038
FTUS41 KPBZ 220540 CCA
TAFPIT
TAF COR
KPIT 220540Z 2206/2312 VRB05KT P6SM -SHRA OVC040
      TEMPO 2206/2210 5SM -SHRA
     FM221200 23008KT P6SM VCSH BKN035
     FM222300 23010KT 6SM -SHRA VCTS BKN035CB
     FM230200 21008KT P6SM BKN035
     FM230400 29008KT P6SM BKN020
     FM230700 30005KT P6SM BKN015=

USA.gov is the U.S. government's official web portal to all federal, state and local government web resources and services.